Greater Rochester International Airport
KROC : now visible

Airfield :











YOU CAN JOIN US ON...

 
LOGIN :

Register | Disclaimer

   EN    FR    IT 

 









Legend :    VFR   Marginal VFR   IFR   Intensive IFR   Very Intensive IFR
Visi :
Ceiling :
>= 8 km
>= 3000ft
5 to 8 km
1000 to 3000 ft
1500m to 5 km
500 to 1000 ft
800 to 1500m
200 to 500 ft
< 800m
< 200 ft
Symbols :   Thunderstorms  Fog  Heavy snow  Heavy precipitations  Wind > 20 kt






- Airport Elevation : 559 ft
- IATA code : ROC


KROC - Greater Rochester International

CURRENT METAR :
  • 170254Z 28010KT 10SM FEW025 SCT150 SCT200 M01/M04 A3008 RMK AO2 SLP197 T10061044 53014

EXPIRED METARs :
  • 170154Z 27009KT 10SM FEW025 SCT150 SCT200 00/M04 A3007 RMK AO2 SLP190 T00001039
  • 170054Z 28011KT 10SM FEW025 SCT150 SCT200 01/M04 A3005 RMK AO2 SLP185 T00061039

TAF KROC
Valid from the 17 at 00:00 until the 18 at 00:00 UTC


162333Z 1700/1724 26012KT P6SM FEW025 BKN150
FM170300 26008KT P6SM SCT020 BKN035
FM170500 29007KT P6SM VCSH BKN012
FM171100 35005KT P6SM BKN020
FM171600 01005KT P6SM BKN035
FM171800 VRB03KT P6SM SCT035 SCT200



MET'MAP, your aeronautical weather chart ! - Copyright ORBIFLY December 2007 - Disclaimer

ORBIFLY MET'MAP TEAM :

Programming & Development : Alexandra Zaïnal
Concept & original design : Baudouin d'Aumeries
Assistance for programming : Marc-Olivier Méhu
Technical & hardware support : Manuel Goepfert

Contact : metmap@orbifly.com




SOURCES & CREDITS :

   NOAA       Earth
Advisory